sensor_id;sensor_type;location;lat;lon;timestamp;P1;durP1;ratioP1;P2;durP2;ratioP2
64738;SDS011;51175;51.186;0.276;2022-08-19T00:00:18;9.98;;;6.47;;
64738;SDS011;51175;51.186;0.276;2022-08-19T00:00:49;9.20;;;6.50;;
64738;SDS011;51175;51.186;0.276;2022-08-19T00:01:20;9.15;;;5.68;;
64738;SDS011;51175;51.186;0.276;2022-08-19T00:01:52;10.35;;;5.63;;
64738;SDS011;51175;51.186;0.276;2022-08-19T00:02:24;9.35;;;5.60;;
64738;SDS011;51175;51.186;0.276;2022-08-19T00:02:55;9.80;;;6.10;;
64738;SDS011;51175;51.186;0.276;2022-08-19T00:03:25;9.23;;;5.78;;
64738;SDS011;51175;51.186;0.276;2022-08-19T00:03:57;11.15;;;6.38;;
64738;SDS011;51175;51.186;0.276;2022-08-19T00:04:32;9.95;;;5.95;;
64738;SDS011;51175;51.186;0.276;2022-08-19T00:05:06;9.82;;;6.32;;
64738;SDS011;51175;51.186;0.276;2022-08-19T00:05:37;10.95;;;6.13;;
64738;SDS011;51175;51.186;0.276;2022-08-19T00:06:08;11.30;;;6.70;;
64738;SDS011;51175;51.186;0.276;2022-08-19T00:06:40;10.55;;;5.75;;
64738;SDS011;51175;51.186;0.276;2022-08-19T00:07:12;12.30;;;6.22;;
64738;SDS011;51175;51.186;0.276;2022-08-19T00:07:43;8.70;;;5.80;;
64738;SDS011;51175;51.186;0.276;2022-08-19T00:08:13;10.00;;;5.65;;
64738;SDS011;51175;51.186;0.276;2022-08-19T00:08:44;10.48;;;5.10;;
64738;SDS011;51175;51.186;0.276;2022-08-19T00:09:16;9.38;;;5.70;;
64738;SDS011;51175;51.186;0.276;2022-08-19T00:09:48;10.30;;;5.95;;
64738;SDS011;51175;51.186;0.276;2022-08-19T00:10:19;14.13;;;6.80;;
64738;SDS011;51175;51.186;0.276;2022-08-19T00:10:50;12.07;;;5.90;;
64738;SDS011;51175;51.186;0.276;2022-08-19T00:11:21;9.90;;;5.72;;
64738;SDS011;51175;51.186;0.276;2022-08-19T00:11:52;10.07;;;6.10;;
64738;SDS011;51175;51.186;0.276;2022-08-19T00:12:25;9.25;;;6.15;;
64738;SDS011;51175;51.186;0.276;2022-08-19T00:12:55;8.57;;;5.53;;
64738;SDS011;51175;51.186;0.276;2022-08-19T00:13:26;9.77;;;5.57;;
64738;SDS011;51175;51.186;0.276;2022-08-19T00:13:58;8.60;;;5.25;;
64738;SDS011;51175;51.186;0.276;2022-08-19T00:14:29;9.50;;;5.53;;
64738;SDS011;51175;51.186;0.276;2022-08-19T00:15:06;11.25;;;6.28;;
64738;SDS011;51175;51.186;0.276;2022-08-19T00:15:43;13.05;;;6.20;;
64738;SDS011;51175;51.186;0.276;2022-08-19T00:16:14;8.52;;;5.47;;
64738;SDS011;51175;51.186;0.276;2022-08-19T00:16:46;10.30;;;5.95;;
64738;SDS011;51175;51.186;0.276;2022-08-19T00:17:17;7.70;;;5.50;;
64738;SDS011;51175;51.186;0.276;2022-08-19T00:17:48;10.38;;;5.55;;
64738;SDS011;51175;51.186;0.276;2022-08-19T00:18:18;10.27;;;5.75;;
64738;SDS011;51175;51.186;0.276;2022-08-19T00:18:49;8.88;;;5.72;;
64738;SDS011;51175;51.186;0.276;2022-08-19T00:19:20;11.68;;;5.60;;
64738;SDS011;51175;51.186;0.276;2022-08-19T00:19:50;10.32;;;5.55;;
64738;SDS011;51175;51.186;0.276;2022-08-19T00:20:21;12.82;;;6.20;;
64738;SDS011;51175;51.186;0.276;2022-08-19T00:20:52;11.18;;;5.80;;
64738;SDS011;51175;51.186;0.276;2022-08-19T00:21:23;8.77;;;6.07;;
64738;SDS011;51175;51.186;0.276;2022-08-19T00:21:54;10.15;;;5.40;;
64738;SDS011;51175;51.186;0.276;2022-08-19T00:22:26;9.40;;;5.95;;
64738;SDS011;51175;51.186;0.276;2022-08-19T00:23:01;9.63;;;6.38;;
64738;SDS011;51175;51.186;0.276;2022-08-19T00:23:34;10.85;;;5.85;;
64738;SDS011;51175;51.186;0.276;2022-08-19T00:24:09;9.32;;;5.72;;
64738;SDS011;51175;51.186;0.276;2022-08-19T00:24:41;10.30;;;5.85;;
64738;SDS011;51175;51.186;0.276;2022-08-19T00:25:13;9.23;;;5.60;;
64738;SDS011;51175;51.186;0.276;2022-08-19T00:25:45;11.93;;;7.43;;
64738;SDS011;51175;51.186;0.276;2022-08-19T00:26:15;12.85;;;6.85;;
64738;SDS011;51175;51.186;0.276;2022-08-19T00:26:46;9.25;;;5.72;;
64738;SDS011;51175;51.186;0.276;2022-08-19T00:27:16;8.65;;;5.35;;
64738;SDS011;51175;51.186;0.276;2022-08-19T00:27:47;8.70;;;5.03;;
64738;SDS011;51175;51.186;0.276;2022-08-19T00:28:18;9.82;;;6.05;;
64738;SDS011;51175;51.186;0.276;2022-08-19T00:28:48;11.10;;;5.70;;
64738;SDS011;51175;51.186;0.276;2022-08-19T00:29:20;10.35;;;5.72;;
64738;SDS011;51175;51.186;0.276;2022-08-19T00:29:51;10.25;;;6.55;;
64738;SDS011;51175;51.186;0.276;2022-08-19T00:30:21;11.50;;;6.47;;
64738;SDS011;51175;51.186;0.276;2022-08-19T00:30:52;10.43;;;6.03;;
64738;SDS011;51175;51.186;0.276;2022-08-19T00:31:23;10.98;;;5.60;;
64738;SDS011;51175;51.186;0.276;2022-08-19T00:31:55;9.30;;;6.03;;
64738;SDS011;51175;51.186;0.276;2022-08-19T00:32:27;10.27;;;6.20;;
64738;SDS011;51175;51.186;0.276;2022-08-19T00:32:58;9.13;;;4.97;;
64738;SDS011;51175;51.186;0.276;2022-08-19T00:33:29;9.43;;;5.63;;
64738;SDS011;51175;51.186;0.276;2022-08-19T00:34:03;11.55;;;6.43;;
64738;SDS011;51175;51.186;0.276;2022-08-19T00:34:34;8.38;;;5.65;;
64738;SDS011;51175;51.186;0.276;2022-08-19T00:35:05;9.77;;;5.38;;
64738;SDS011;51175;51.186;0.276;2022-08-19T00:35:36;8.65;;;5.03;;
64738;SDS011;51175;51.186;0.276;2022-08-19T00:36:08;9.32;;;4.82;;
64738;SDS011;51175;51.186;0.276;2022-08-19T00:36:42;9.30;;;4.95;;
64738;SDS011;51175;51.186;0.276;2022-08-19T00:37:13;9.73;;;5.65;;
64738;SDS011;51175;51.186;0.276;2022-08-19T00:37:43;9.18;;;5.72;;
64738;SDS011;51175;51.186;0.276;2022-08-19T00:38:14;9.63;;;5.05;;
64738;SDS011;51175;51.186;0.276;2022-08-19T00:38:45;9.02;;;5.32;;
64738;SDS011;51175;51.186;0.276;2022-08-19T00:39:16;10.60;;;6.03;;
64738;SDS011;51175;51.186;0.276;2022-08-19T00:39:47;11.13;;;5.80;;
64738;SDS011;51175;51.186;0.276;2022-08-19T00:40:17;9.65;;;4.97;;
64738;SDS011;51175;51.186;0.276;2022-08-19T00:40:49;5.95;;;4.65;;
64738;SDS011;51175;51.186;0.276;2022-08-19T00:41:20;8.10;;;5.35;;
64738;SDS011;51175;51.186;0.276;2022-08-19T00:41:53;8.95;;;5.00;;
64738;SDS011;51175;51.186;0.276;2022-08-19T00:42:23;8.48;;;4.55;;
64738;SDS011;51175;51.186;0.276;2022-08-19T00:42:53;10.35;;;5.50;;
64738;SDS011;51175;51.186;0.276;2022-08-19T00:43:25;8.15;;;5.40;;
64738;SDS011;51175;51.186;0.276;2022-08-19T00:43:58;9.55;;;4.75;;
64738;SDS011;51175;51.186;0.276;2022-08-19T00:44:31;11.30;;;5.10;;
64738;SDS011;51175;51.186;0.276;2022-08-19T00:45:02;8.00;;;4.68;;
64738;SDS011;51175;51.186;0.276;2022-08-19T00:45:40;10.15;;;4.82;;
64738;SDS011;51175;51.186;0.276;2022-08-19T00:46:13;6.32;;;4.50;;
64738;SDS011;51175;51.186;0.276;2022-08-19T00:46:44;7.22;;;4.68;;
64738;SDS011;51175;51.186;0.276;2022-08-19T00:47:17;9.90;;;6.03;;
64738;SDS011;51175;51.186;0.276;2022-08-19T00:47:48;9.73;;;4.22;;
64738;SDS011;51175;51.186;0.276;2022-08-19T00:48:19;7.13;;;4.45;;
64738;SDS011;51175;51.186;0.276;2022-08-19T00:48:50;9.82;;;5.18;;
64738;SDS011;51175;51.186;0.276;2022-08-19T00:50:07;9.85;;;5.22;;
64738;SDS011;51175;51.186;0.276;2022-08-19T00:50:40;11.82;;;5.13;;
64738;SDS011;51175;51.186;0.276;2022-08-19T00:51:12;7.25;;;4.97;;
64738;SDS011;51175;51.186;0.276;2022-08-19T00:51:44;7.97;;;5.55;;
64738;SDS011;51175;51.186;0.276;2022-08-19T00:52:21;8.80;;;5.15;;
64738;SDS011;51175;51.186;0.276;2022-08-19T00:52:55;8.60;;;5.22;;
64738;SDS011;51175;51.186;0.276;2022-08-19T00:53:27;8.18;;;4.97;;
64738;SDS011;51175;51.186;0.276;2022-08-19T00:54:01;9.90;;;5.53;;
64738;SDS011;51175;51.186;0.276;2022-08-19T00:54:34;8.90;;;4.20;;
64738;SDS011;51175;51.186;0.276;2022-08-19T00:55:07;9.38;;;5.18;;
64738;SDS011;51175;51.186;0.276;2022-08-19T00:55:42;8.68;;;5.07;;
64738;SDS011;51175;51.186;0.276;2022-08-19T00:56:15;9.02;;;5.13;;
64738;SDS011;51175;51.186;0.276;2022-08-19T00:56:46;7.72;;;4.72;;
64738;SDS011;51175;51.186;0.276;2022-08-19T00:57:19;7.95;;;4.90;;
64738;SDS011;51175;51.186;0.276;2022-08-19T00:57:57;7.85;;;4.80;;
64738;SDS011;51175;51.186;0.276;2022-08-19T00:58:32;10.00;;;5.68;;
64738;SDS011;51175;51.186;0.276;2022-08-19T00:59:04;6.97;;;4.55;;
64738;SDS011;51175;51.186;0.276;2022-08-19T00:59:39;11.10;;;4.95;;
64738;SDS011;51175;51.186;0.276;2022-08-19T01:00:13;9.18;;;5.13;;
64738;SDS011;51175;51.186;0.276;2022-08-19T01:00:45;8.27;;;4.43;;
64738;SDS011;51175;51.186;0.276;2022-08-19T01:01:17;6.30;;;4.18;;
64738;SDS011;51175;51.186;0.276;2022-08-19T01:01:47;9.00;;;5.50;;
64738;SDS011;51175;51.186;0.276;2022-08-19T01:02:18;7.93;;;4.28;;
64738;SDS011;51175;51.186;0.276;2022-08-19T01:02:48;7.95;;;4.20;;
64738;SDS011;51175;51.186;0.276;2022-08-19T01:03:19;8.27;;;4.32;;
64738;SDS011;51175;51.186;0.276;2022-08-19T01:03:51;8.38;;;4.38;;
64738;SDS011;51175;51.186;0.276;2022-08-19T01:04:21;8.27;;;5.05;;
64738;SDS011;51175;51.186;0.276;2022-08-19T01:04:52;5.70;;;3.88;;
64738;SDS011;51175;51.186;0.276;2022-08-19T01:05:24;9.18;;;4.95;;
64738;SDS011;51175;51.186;0.276;2022-08-19T01:05:58;10.52;;;4.53;;
64738;SDS011;51175;51.186;0.276;2022-08-19T01:06:30;8.02;;;4.63;;
64738;SDS011;51175;51.186;0.276;2022-08-19T01:07:02;8.43;;;4.32;;
64738;SDS011;51175;51.186;0.276;2022-08-19T01:07:33;8.68;;;4.32;;
64738;SDS011;51175;51.186;0.276;2022-08-19T01:08:05;8.75;;;4.35;;
64738;SDS011;51175;51.186;0.276;2022-08-19T01:08:37;10.35;;;4.88;;
64738;SDS011;51175;51.186;0.276;2022-08-19T01:09:07;10.40;;;5.20;;
64738;SDS011;51175;51.186;0.276;2022-08-19T01:09:38;6.90;;;4.60;;
64738;SDS011;51175;51.186;0.276;2022-08-19T01:10:10;8.20;;;4.63;;
64738;SDS011;51175;51.186;0.276;2022-08-19T01:10:52;7.93;;;4.00;;
64738;SDS011;51175;51.186;0.276;2022-08-19T01:11:26;6.65;;;4.28;;
64738;SDS011;51175;51.186;0.276;2022-08-19T01:11:58;8.02;;;5.00;;
64738;SDS011;51175;51.186;0.276;2022-08-19T01:12:28;8.70;;;4.13;;
64738;SDS011;51175;51.186;0.276;2022-08-19T01:13:00;10.57;;;4.82;;
64738;SDS011;51175;51.186;0.276;2022-08-19T01:13:32;7.35;;;4.53;;
64738;SDS011;51175;51.186;0.276;2022-08-19T01:14:03;7.38;;;4.20;;
64738;SDS011;51175;51.186;0.276;2022-08-19T01:14:35;9.70;;;4.32;;
64738;SDS011;51175;51.186;0.276;2022-08-19T01:15:09;9.75;;;4.68;;
64738;SDS011;51175;51.186;0.276;2022-08-19T01:15:43;8.43;;;4.10;;
64738;SDS011;51175;51.186;0.276;2022-08-19T01:16:17;10.20;;;5.32;;
64738;SDS011;51175;51.186;0.276;2022-08-19T01:16:50;9.30;;;3.88;;
64738;SDS011;51175;51.186;0.276;2022-08-19T01:17:24;9.30;;;4.35;;
64738;SDS011;51175;51.186;0.276;2022-08-19T01:17:54;9.20;;;4.47;;
64738;SDS011;51175;51.186;0.276;2022-08-19T01:18:27;7.38;;;3.92;;
64738;SDS011;51175;51.186;0.276;2022-08-19T01:18:58;7.85;;;3.80;;
64738;SDS011;51175;51.186;0.276;2022-08-19T01:19:30;8.13;;;3.40;;
64738;SDS011;51175;51.186;0.276;2022-08-19T01:20:05;8.98;;;4.65;;
64738;SDS011;51175;51.186;0.276;2022-08-19T01:20:38;9.80;;;4.57;;
64738;SDS011;51175;51.186;0.276;2022-08-19T01:21:11;9.32;;;3.92;;
64738;SDS011;51175;51.186;0.276;2022-08-19T01:22:08;6.00;;;3.83;;
64738;SDS011;51175;51.186;0.276;2022-08-19T01:22:43;7.45;;;3.72;;
64738;SDS011;51175;51.186;0.276;2022-08-19T01:23:16;9.00;;;4.65;;
64738;SDS011;51175;51.186;0.276;2022-08-19T01:23:46;9.60;;;5.13;;
64738;SDS011;51175;51.186;0.276;2022-08-19T01:24:17;5.82;;;4.68;;
64738;SDS011;51175;51.186;0.276;2022-08-19T01:24:48;8.90;;;4.82;;
64738;SDS011;51175;51.186;0.276;2022-08-19T01:25:21;10.38;;;4.13;;
64738;SDS011;51175;51.186;0.276;2022-08-19T01:25:56;8.73;;;4.63;;
64738;SDS011;51175;51.186;0.276;2022-08-19T01:26:27;7.00;;;3.80;;
64738;SDS011;51175;51.186;0.276;2022-08-19T01:26:57;8.13;;;4.55;;
64738;SDS011;51175;51.186;0.276;2022-08-19T01:27:36;6.90;;;4.65;;
64738;SDS011;51175;51.186;0.276;2022-08-19T01:28:22;8.15;;;3.67;;
64738;SDS011;51175;51.186;0.276;2022-08-19T01:28:57;7.97;;;4.65;;
64738;SDS011;51175;51.186;0.276;2022-08-19T01:29:28;7.22;;;4.38;;
64738;SDS011;51175;51.186;0.276;2022-08-19T01:29:59;7.88;;;5.18;;
64738;SDS011;51175;51.186;0.276;2022-08-19T01:30:31;7.20;;;4.10;;
64738;SDS011;51175;51.186;0.276;2022-08-19T01:31:03;8.23;;;4.18;;
64738;SDS011;51175;51.186;0.276;2022-08-19T01:31:34;8.73;;;4.22;;
64738;SDS011;51175;51.186;0.276;2022-08-19T01:32:05;7.00;;;4.38;;
64738;SDS011;51175;51.186;0.276;2022-08-19T01:32:36;6.75;;;4.15;;
64738;SDS011;51175;51.186;0.276;2022-08-19T01:33:06;8.75;;;4.32;;
64738;SDS011;51175;51.186;0.276;2022-08-19T01:33:37;10.48;;;4.88;;
64738;SDS011;51175;51.186;0.276;2022-08-19T01:34:08;10.00;;;4.15;;
64738;SDS011;51175;51.186;0.276;2022-08-19T01:34:40;6.18;;;4.57;;
64738;SDS011;51175;51.186;0.276;2022-08-19T01:35:12;9.02;;;4.82;;
64738;SDS011;51175;51.186;0.276;2022-08-19T01:35:43;7.00;;;4.10;;
64738;SDS011;51175;51.186;0.276;2022-08-19T01:36:15;6.22;;;4.10;;
64738;SDS011;51175;51.186;0.276;2022-08-19T01:36:57;7.43;;;4.35;;
64738;SDS011;51175;51.186;0.276;2022-08-19T01:37:28;10.48;;;5.10;;
64738;SDS011;51175;51.186;0.276;2022-08-19T01:38:01;10.43;;;4.55;;
64738;SDS011;51175;51.186;0.276;2022-08-19T01:38:38;7.50;;;4.55;;
64738;SDS011;51175;51.186;0.276;2022-08-19T01:39:11;8.77;;;4.97;;
64738;SDS011;51175;51.186;0.276;2022-08-19T01:39:45;8.13;;;4.90;;
64738;SDS011;51175;51.186;0.276;2022-08-19T01:40:16;5.38;;;3.80;;
64738;SDS011;51175;51.186;0.276;2022-08-19T01:40:49;8.38;;;4.97;;
64738;SDS011;51175;51.186;0.276;2022-08-19T01:41:19;7.43;;;4.13;;
64738;SDS011;51175;51.186;0.276;2022-08-19T01:41:51;9.90;;;4.57;;
64738;SDS011;51175;51.186;0.276;2022-08-19T01:42:24;5.75;;;3.95;;
64738;SDS011;51175;51.186;0.276;2022-08-19T01:42:55;7.07;;;4.72;;
64738;SDS011;51175;51.186;0.276;2022-08-19T01:43:25;7.93;;;3.92;;
64738;SDS011;51175;51.186;0.276;2022-08-19T01:43:56;6.10;;;4.00;;
64738;SDS011;51175;51.186;0.276;2022-08-19T01:44:27;5.97;;;3.38;;
64738;SDS011;51175;51.186;0.276;2022-08-19T01:44:57;6.90;;;4.68;;
64738;SDS011;51175;51.186;0.276;2022-08-19T01:45:29;5.40;;;4.03;;
64738;SDS011;51175;51.186;0.276;2022-08-19T01:46:01;8.75;;;4.35;;
64738;SDS011;51175;51.186;0.276;2022-08-19T01:46:33;5.53;;;3.50;;
64738;SDS011;51175;51.186;0.276;2022-08-19T01:47:04;7.70;;;5.15;;
64738;SDS011;51175;51.186;0.276;2022-08-19T01:47:35;7.20;;;4.40;;
64738;SDS011;51175;51.186;0.276;2022-08-19T01:48:06;5.35;;;3.60;;
64738;SDS011;51175;51.186;0.276;2022-08-19T01:48:38;9.07;;;4.18;;
64738;SDS011;51175;51.186;0.276;2022-08-19T01:49:10;5.93;;;3.92;;
64738;SDS011;51175;51.186;0.276;2022-08-19T01:49:41;6.03;;;4.22;;
64738;SDS011;51175;51.186;0.276;2022-08-19T01:50:12;7.07;;;3.97;;
64738;SDS011;51175;51.186;0.276;2022-08-19T01:50:43;6.78;;;3.75;;
64738;SDS011;51175;51.186;0.276;2022-08-19T01:51:13;7.22;;;4.07;;
64738;SDS011;51175;51.186;0.276;2022-08-19T01:51:44;8.10;;;4.50;;
64738;SDS011;51175;51.186;0.276;2022-08-19T01:52:16;7.22;;;3.75;;
64738;SDS011;51175;51.186;0.276;2022-08-19T01:52:46;6.53;;;4.30;;
64738;SDS011;51175;51.186;0.276;2022-08-19T01:53:17;7.32;;;4.25;;
64738;SDS011;51175;51.186;0.276;2022-08-19T01:53:48;10.48;;;4.38;;
64738;SDS011;51175;51.186;0.276;2022-08-19T01:54:20;6.28;;;3.70;;
64738;SDS011;51175;51.186;0.276;2022-08-19T01:54:53;9.52;;;4.50;;
64738;SDS011;51175;51.186;0.276;2022-08-19T01:55:23;7.75;;;3.67;;
64738;SDS011;51175;51.186;0.276;2022-08-19T01:55:54;7.18;;;4.03;;
64738;SDS011;51175;51.186;0.276;2022-08-19T01:56:25;7.13;;;4.60;;
64738;SDS011;51175;51.186;0.276;2022-08-19T01:56:57;7.13;;;3.75;;
64738;SDS011;51175;51.186;0.276;2022-08-19T01:57:35;7.18;;;4.45;;
64738;SDS011;51175;51.186;0.276;2022-08-19T01:58:08;6.22;;;4.18;;
64738;SDS011;51175;51.186;0.276;2022-08-19T01:58:47;5.15;;;3.65;;
64738;SDS011;51175;51.186;0.276;2022-08-19T01:59:25;8.85;;;4.32;;
64738;SDS011;51175;51.186;0.276;2022-08-19T01:59:56;6.50;;;4.13;;
64738;SDS011;51175;51.186;0.276;2022-08-19T02:00:28;7.20;;;4.18;;
64738;SDS011;51175;51.186;0.276;2022-08-19T02:01:01;4.90;;;3.33;;
64738;SDS011;51175;51.186;0.276;2022-08-19T02:01:31;9.27;;;4.22;;
64738;SDS011;51175;51.186;0.276;2022-08-19T02:02:03;6.40;;;3.60;;
64738;SDS011;51175;51.186;0.276;2022-08-19T02:02:37;6.93;;;3.88;;
64738;SDS011;51175;51.186;0.276;2022-08-19T02:03:08;7.05;;;4.25;;
64738;SDS011;51175;51.186;0.276;2022-08-19T02:03:41;8.77;;;4.13;;
64738;SDS011;51175;51.186;0.276;2022-08-19T02:04:11;7.60;;;4.28;;
64738;SDS011;51175;51.186;0.276;2022-08-19T02:04:41;10.18;;;4.20;;
64738;SDS011;51175;51.186;0.276;2022-08-19T02:05:12;8.65;;;4.55;;
64738;SDS011;51175;51.186;0.276;2022-08-19T02:05:43;5.60;;;4.10;;
64738;SDS011;51175;51.186;0.276;2022-08-19T02:06:14;7.47;;;3.90;;
64738;SDS011;51175;51.186;0.276;2022-08-19T02:06:46;8.32;;;4.63;;
64738;SDS011;51175;51.186;0.276;2022-08-19T02:07:21;6.50;;;4.05;;
64738;SDS011;51175;51.186;0.276;2022-08-19T02:07:51;7.72;;;4.03;;
64738;SDS011;51175;51.186;0.276;2022-08-19T02:08:22;7.60;;;3.40;;
64738;SDS011;51175;51.186;0.276;2022-08-19T02:08:52;5.40;;;4.20;;
64738;SDS011;51175;51.186;0.276;2022-08-19T02:09:23;6.65;;;4.20;;
64738;SDS011;51175;51.186;0.276;2022-08-19T02:09:53;7.80;;;4.00;;
64738;SDS011;51175;51.186;0.276;2022-08-19T02:10:25;4.95;;;3.63;;
64738;SDS011;51175;51.186;0.276;2022-08-19T02:10:55;6.78;;;4.00;;
64738;SDS011;51175;51.186;0.276;2022-08-19T02:11:27;9.20;;;4.15;;
64738;SDS011;51175;51.186;0.276;2022-08-19T02:12:01;7.57;;;4.07;;
64738;SDS011;51175;51.186;0.276;2022-08-19T02:12:32;7.03;;;3.72;;
64738;SDS011;51175;51.186;0.276;2022-08-19T02:13:03;8.15;;;4.38;;
64738;SDS011;51175;51.186;0.276;2022-08-19T02:13:34;7.32;;;4.32;;
64738;SDS011;51175;51.186;0.276;2022-08-19T02:14:05;7.43;;;3.85;;
64738;SDS011;51175;51.186;0.276;2022-08-19T02:14:36;6.35;;;4.22;;
64738;SDS011;51175;51.186;0.276;2022-08-19T02:15:07;6.80;;;3.70;;
64738;SDS011;51175;51.186;0.276;2022-08-19T02:15:38;7.65;;;3.60;;
64738;SDS011;51175;51.186;0.276;2022-08-19T02:16:08;8.43;;;4.60;;
64738;SDS011;51175;51.186;0.276;2022-08-19T02:16:38;8.40;;;3.88;;
64738;SDS011;51175;51.186;0.276;2022-08-19T02:17:10;8.48;;;4.65;;
64738;SDS011;51175;51.186;0.276;2022-08-19T02:17:41;7.72;;;3.97;;
64738;SDS011;51175;51.186;0.276;2022-08-19T02:18:12;8.18;;;4.05;;
64738;SDS011;51175;51.186;0.276;2022-08-19T02:18:43;6.63;;;3.95;;
64738;SDS011;51175;51.186;0.276;2022-08-19T02:19:13;8.63;;;3.85;;
64738;SDS011;51175;51.186;0.276;2022-08-19T02:19:44;6.13;;;4.43;;
64738;SDS011;51175;51.186;0.276;2022-08-19T02:20:14;7.90;;;3.75;;
64738;SDS011;51175;51.186;0.276;2022-08-19T02:20:45;8.40;;;3.45;;
64738;SDS011;51175;51.186;0.276;2022-08-19T02:21:18;6.90;;;4.10;;
64738;SDS011;51175;51.186;0.276;2022-08-19T02:21:51;9.93;;;4.03;;
64738;SDS011;51175;51.186;0.276;2022-08-19T02:22:22;8.13;;;4.05;;
64738;SDS011;51175;51.186;0.276;2022-08-19T02:22:54;7.72;;;3.63;;
64738;SDS011;51175;51.186;0.276;2022-08-19T02:23:24;8.13;;;3.55;;
64738;SDS011;51175;51.186;0.276;2022-08-19T02:23:54;7.32;;;3.20;;
64738;SDS011;51175;51.186;0.276;2022-08-19T02:24:26;7.28;;;4.65;;
64738;SDS011;51175;51.186;0.276;2022-08-19T02:24:57;5.85;;;2.80;;
64738;SDS011;51175;51.186;0.276;2022-08-19T02:25:27;6.28;;;3.83;;
64738;SDS011;51175;51.186;0.276;2022-08-19T02:25:58;8.88;;;4.03;;
64738;SDS011;51175;51.186;0.276;2022-08-19T02:26:28;7.38;;;3.40;;
64738;SDS011;51175;51.186;0.276;2022-08-19T02:26:59;4.43;;;3.28;;
64738;SDS011;51175;51.186;0.276;2022-08-19T02:27:29;5.35;;;3.25;;
64738;SDS011;51175;51.186;0.276;2022-08-19T02:28:00;5.25;;;3.08;;
64738;SDS011;51175;51.186;0.276;2022-08-19T02:28:31;7.60;;;4.15;;
64738;SDS011;51175;51.186;0.276;2022-08-19T02:29:02;9.40;;;3.60;;
64738;SDS011;51175;51.186;0.276;2022-08-19T02:29:33;6.13;;;3.38;;
64738;SDS011;51175;51.186;0.276;2022-08-19T02:30:05;7.35;;;3.55;;
64738;SDS011;51175;51.186;0.276;2022-08-19T02:30:37;6.47;;;3.13;;
64738;SDS011;51175;51.186;0.276;2022-08-19T02:31:10;6.72;;;3.88;;
64738;SDS011;51175;51.186;0.276;2022-08-19T02:31:44;8.32;;;3.55;;
64738;SDS011;51175;51.186;0.276;2022-08-19T02:32:15;8.25;;;3.90;;
64738;SDS011;51175;51.186;0.276;2022-08-19T02:32:48;8.02;;;3.78;;
64738;SDS011;51175;51.186;0.276;2022-08-19T02:33:19;8.90;;;4.32;;
64738;SDS011;51175;51.186;0.276;2022-08-19T02:33:49;7.57;;;4.05;;
64738;SDS011;51175;51.186;0.276;2022-08-19T02:34:20;8.63;;;3.47;;
64738;SDS011;51175;51.186;0.276;2022-08-19T02:34:50;7.75;;;3.63;;
64738;SDS011;51175;51.186;0.276;2022-08-19T02:35:21;9.27;;;3.92;;
64738;SDS011;51175;51.186;0.276;2022-08-19T02:35:51;7.85;;;3.88;;
64738;SDS011;51175;51.186;0.276;2022-08-19T02:36:22;11.30;;;4.28;;
64738;SDS011;51175;51.186;0.276;2022-08-19T02:36:53;8.23;;;3.55;;
64738;SDS011;51175;51.186;0.276;2022-08-19T02:37:23;6.15;;;4.47;;
64738;SDS011;51175;51.186;0.276;2022-08-19T02:38:23;7.78;;;3.75;;
64738;SDS011;51175;51.186;0.276;2022-08-19T02:38:56;5.07;;;3.40;;
64738;SDS011;51175;51.186;0.276;2022-08-19T02:39:26;8.23;;;3.88;;
64738;SDS011;51175;51.186;0.276;2022-08-19T02:39:57;6.88;;;3.65;;
64738;SDS011;51175;51.186;0.276;2022-08-19T02:40:28;6.78;;;4.03;;
64738;SDS011;51175;51.186;0.276;2022-08-19T02:41:05;6.03;;;3.35;;
64738;SDS011;51175;51.186;0.276;2022-08-19T02:41:39;4.65;;;3.38;;
64738;SDS011;51175;51.186;0.276;2022-08-19T02:42:10;5.82;;;4.15;;
64738;SDS011;51175;51.186;0.276;2022-08-19T02:42:41;7.88;;;3.97;;
64738;SDS011;51175;51.186;0.276;2022-08-19T02:43:12;7.70;;;3.30;;
64738;SDS011;51175;51.186;0.276;2022-08-19T02:43:43;7.60;;;3.47;;
64738;SDS011;51175;51.186;0.276;2022-08-19T02:44:13;5.15;;;3.10;;
64738;SDS011;51175;51.186;0.276;2022-08-19T02:44:43;7.25;;;4.55;;
64738;SDS011;51175;51.186;0.276;2022-08-19T02:45:14;8.90;;;3.63;;
64738;SDS011;51175;51.186;0.276;2022-08-19T02:45:44;4.85;;;3.53;;
64738;SDS011;51175;51.186;0.276;2022-08-19T02:46:16;6.07;;;3.10;;
64738;SDS011;51175;51.186;0.276;2022-08-19T02:46:58;6.93;;;4.18;;
64738;SDS011;51175;51.186;0.276;2022-08-19T02:47:29;7.65;;;4.15;;
64738;SDS011;51175;51.186;0.276;2022-08-19T02:47:59;5.32;;;3.20;;
64738;SDS011;51175;51.186;0.276;2022-08-19T02:48:30;7.43;;;4.40;;
64738;SDS011;51175;51.186;0.276;2022-08-19T02:49:04;5.78;;;3.85;;
64738;SDS011;51175;51.186;0.276;2022-08-19T02:49:36;8.85;;;3.75;;
64738;SDS011;51175;51.186;0.276;2022-08-19T02:50:07;7.80;;;3.70;;
64738;SDS011;51175;51.186;0.276;2022-08-19T02:50:38;6.75;;;3.90;;
64738;SDS011;51175;51.186;0.276;2022-08-19T02:51:09;9.10;;;3.92;;
64738;SDS011;51175;51.186;0.276;2022-08-19T02:51:46;6.38;;;3.33;;
64738;SDS011;51175;51.186;0.276;2022-08-19T02:52:17;7.15;;;3.25;;
64738;SDS011;51175;51.186;0.276;2022-08-19T02:52:47;6.93;;;3.83;;
64738;SDS011;51175;51.186;0.276;2022-08-19T02:53:17;10.40;;;3.88;;
64738;SDS011;51175;51.186;0.276;2022-08-19T02:53:48;7.18;;;3.00;;
64738;SDS011;51175;51.186;0.276;2022-08-19T02:54:19;5.70;;;3.25;;
64738;SDS011;51175;51.186;0.276;2022-08-19T02:54:49;6.63;;;3.08;;
64738;SDS011;51175;51.186;0.276;2022-08-19T02:55:19;7.18;;;3.53;;
64738;SDS011;51175;51.186;0.276;2022-08-19T02:55:50;6.43;;;3.47;;
64738;SDS011;51175;51.186;0.276;2022-08-19T02:56:22;6.57;;;3.05;;
64738;SDS011;51175;51.186;0.276;2022-08-19T02:56:54;5.25;;;3.20;;
64738;SDS011;51175;51.186;0.276;2022-08-19T02:57:24;6.40;;;3.13;;
64738;SDS011;51175;51.186;0.276;2022-08-19T02:57:55;7.00;;;3.25;;
64738;SDS011;51175;51.186;0.276;2022-08-19T02:58:26;6.75;;;3.33;;
64738;SDS011;51175;51.186;0.276;2022-08-19T02:58:57;5.97;;;3.38;;
64738;SDS011;51175;51.186;0.276;2022-08-19T02:59:29;8.75;;;3.38;;
64738;SDS011;51175;51.186;0.276;2022-08-19T03:00:00;7.53;;;4.03;;
64738;SDS011;51175;51.186;0.276;2022-08-19T03:00:33;5.07;;;2.85;;
64738;SDS011;51175;51.186;0.276;2022-08-19T03:01:03;10.35;;;3.63;;
64738;SDS011;51175;51.186;0.276;2022-08-19T03:01:34;9.00;;;3.97;;
64738;SDS011;51175;51.186;0.276;2022-08-19T03:02:05;6.03;;;3.72;;
64738;SDS011;51175;51.186;0.276;2022-08-19T03:02:36;8.00;;;3.53;;
64738;SDS011;51175;51.186;0.276;2022-08-19T03:03:06;8.18;;;3.88;;
64738;SDS011;51175;51.186;0.276;2022-08-19T03:03:37;7.13;;;3.38;;
64738;SDS011;51175;51.186;0.276;2022-08-19T03:04:08;6.88;;;3.47;;
64738;SDS011;51175;51.186;0.276;2022-08-19T03:04:41;4.90;;;3.30;;
64738;SDS011;51175;51.186;0.276;2022-08-19T03:05:12;7.30;;;3.75;;
64738;SDS011;51175;51.186;0.276;2022-08-19T03:05:43;5.50;;;2.67;;
64738;SDS011;51175;51.186;0.276;2022-08-19T03:06:14;7.80;;;3.72;;
64738;SDS011;51175;51.186;0.276;2022-08-19T03:06:45;7.20;;;3.75;;
64738;SDS011;51175;51.186;0.276;2022-08-19T03:07:17;6.30;;;3.38;;
64738;SDS011;51175;51.186;0.276;2022-08-19T03:07:48;9.05;;;3.78;;
64738;SDS011;51175;51.186;0.276;2022-08-19T03:08:18;7.43;;;3.55;;
64738;SDS011;51175;51.186;0.276;2022-08-19T03:08:49;4.78;;;2.88;;
64738;SDS011;51175;51.186;0.276;2022-08-19T03:09:20;6.88;;;3.08;;
64738;SDS011;51175;51.186;0.276;2022-08-19T03:09:50;6.38;;;3.95;;
64738;SDS011;51175;51.186;0.276;2022-08-19T03:10:20;6.15;;;3.72;;
64738;SDS011;51175;51.186;0.276;2022-08-19T03:10:51;7.18;;;3.42;;
64738;SDS011;51175;51.186;0.276;2022-08-19T03:11:24;5.15;;;3.00;;
64738;SDS011;51175;51.186;0.276;2022-08-19T03:11:59;3.95;;;2.60;;
64738;SDS011;51175;51.186;0.276;2022-08-19T03:12:29;5.30;;;2.90;;
64738;SDS011;51175;51.186;0.276;2022-08-19T03:13:00;8.02;;;3.72;;